sensor_id;sensor_type;location;lat;lon;timestamp;pressure;altitude;pressure_sealevel;temperature;humidity
54808;BME280;40708;50.364;7.550;2022-11-04T00:01:18;99305.31;;;11.60;100.00
54808;BME280;40708;50.364;7.550;2022-11-04T00:03:44;99308.00;;;11.59;100.00
54808;BME280;40708;50.364;7.550;2022-11-04T00:06:09;99310.72;;;11.56;100.00
54808;BME280;40708;50.364;7.550;2022-11-04T00:08:35;99310.63;;;11.60;100.00
54808;BME280;40708;50.364;7.550;2022-11-04T00:11:01;99312.41;;;11.60;100.00
54808;BME280;40708;50.364;7.550;2022-11-04T00:13:45;99313.41;;;11.53;100.00
54808;BME280;40708;50.364;7.550;2022-11-04T00:16:12;99328.41;;;11.55;100.00
54808;BME280;40708;50.364;7.550;2022-11-04T00:18:56;99337.25;;;11.56;100.00
54808;BME280;40708;50.364;7.550;2022-11-04T00:21:21;99343.41;;;11.58;100.00
54808;BME280;40708;50.364;7.550;2022-11-04T00:24:07;99340.84;;;11.55;100.00
54808;BME280;40708;50.364;7.550;2022-11-04T00:26:52;99338.19;;;11.55;100.00
54808;BME280;40708;50.364;7.550;2022-11-04T00:29:36;99348.00;;;11.51;100.00
54808;BME280;40708;50.364;7.550;2022-11-04T00:32:02;99360.38;;;11.52;100.00
54808;BME280;40708;50.364;7.550;2022-11-04T00:34:45;99375.41;;;11.53;100.00
54808;BME280;40708;50.364;7.550;2022-11-04T00:37:10;99379.88;;;11.51;100.00
54808;BME280;40708;50.364;7.550;2022-11-04T00:39:36;99386.06;;;11.52;100.00
54808;BME280;40708;50.364;7.550;2022-11-04T00:42:01;99391.44;;;11.49;100.00
54808;BME280;40708;50.364;7.550;2022-11-04T00:44:26;99395.97;;;11.42;100.00
54808;BME280;40708;50.364;7.550;2022-11-04T00:46:51;99392.53;;;11.39;100.00
54808;BME280;40708;50.364;7.550;2022-11-04T00:49:17;99388.25;;;11.30;100.00
54808;BME280;40708;50.364;7.550;2022-11-04T00:51:42;99388.44;;;11.21;100.00
54808;BME280;40708;50.364;7.550;2022-11-04T00:54:07;99391.97;;;11.20;100.00
54808;BME280;40708;50.364;7.550;2022-11-04T00:56:36;99384.25;;;11.08;100.00
54808;BME280;40708;50.364;7.550;2022-11-04T00:59:01;99380.81;;;11.03;100.00
54808;BME280;40708;50.364;7.550;2022-11-04T01:01:27;99393.22;;;11.02;100.00
54808;BME280;40708;50.364;7.550;2022-11-04T01:03:52;99387.91;;;11.02;100.00
54808;BME280;40708;50.364;7.550;2022-11-04T01:06:19;99389.91;;;10.90;100.00
54808;BME280;40708;50.364;7.550;2022-11-04T01:08:45;99394.47;;;10.82;100.00
54808;BME280;40708;50.364;7.550;2022-11-04T01:11:11;99405.16;;;10.77;100.00
54808;BME280;40708;50.364;7.550;2022-11-04T01:13:37;99406.91;;;10.76;100.00
54808;BME280;40708;50.364;7.550;2022-11-04T01:16:06;99401.78;;;10.67;100.00
54808;BME280;40708;50.364;7.550;2022-11-04T01:18:32;99408.06;;;10.60;100.00
54808;BME280;40708;50.364;7.550;2022-11-04T01:21:04;99423.19;;;10.57;100.00
54808;BME280;40708;50.364;7.550;2022-11-04T01:23:30;99421.38;;;10.57;100.00
54808;BME280;40708;50.364;7.550;2022-11-04T01:25:56;99428.47;;;10.55;100.00
54808;BME280;40708;50.364;7.550;2022-11-04T01:28:21;99429.44;;;10.51;100.00
54808;BME280;40708;50.364;7.550;2022-11-04T01:30:47;99438.34;;;10.49;100.00
54808;BME280;40708;50.364;7.550;2022-11-04T01:33:12;99432.22;;;10.42;100.00
54808;BME280;40708;50.364;7.550;2022-11-04T01:35:37;99433.22;;;10.35;100.00
54808;BME280;40708;50.364;7.550;2022-11-04T01:38:03;99442.13;;;10.31;100.00
54808;BME280;40708;50.364;7.550;2022-11-04T01:40:28;99456.38;;;10.24;100.00
54808;BME280;40708;50.364;7.550;2022-11-04T01:42:53;99460.78;;;10.22;100.00
54808;BME280;40708;50.364;7.550;2022-11-04T01:45:20;99458.22;;;10.19;100.00
54808;BME280;40708;50.364;7.550;2022-11-04T01:48:08;99457.41;;;10.09;100.00
54808;BME280;40708;50.364;7.550;2022-11-04T01:50:37;99455.63;;;10.10;100.00
54808;BME280;40708;50.364;7.550;2022-11-04T01:53:05;99457.44;;;10.06;100.00
54808;BME280;40708;50.364;7.550;2022-11-04T01:55:34;99456.53;;;10.09;100.00
54808;BME280;40708;50.364;7.550;2022-11-04T01:58:03;99451.28;;;10.04;100.00
54808;BME280;40708;50.364;7.550;2022-11-04T02:00:31;99455.66;;;10.07;100.00
54808;BME280;40708;50.364;7.550;2022-11-04T02:03:17;99449.63;;;9.96;100.00
54808;BME280;40708;50.364;7.550;2022-11-04T02:05:45;99462.06;;;9.91;100.00
54808;BME280;40708;50.364;7.550;2022-11-04T02:08:11;99458.56;;;9.89;100.00
54808;BME280;40708;50.364;7.550;2022-11-04T02:10:40;99469.28;;;9.80;100.00
54808;BME280;40708;50.364;7.550;2022-11-04T02:13:06;99473.72;;;9.78;100.00
54808;BME280;40708;50.364;7.550;2022-11-04T02:18:28;99481.75;;;9.69;100.00
54808;BME280;40708;50.364;7.550;2022-11-04T02:23:54;99479.22;;;9.58;100.00
54808;BME280;40708;50.364;7.550;2022-11-04T02:27:02;99467.81;;;9.51;100.00
54808;BME280;40708;50.364;7.550;2022-11-04T02:35:40;99450.22;;;9.47;100.00
54808;BME280;40708;50.364;7.550;2022-11-04T02:38:31;99442.31;;;9.44;100.00
54808;BME280;40708;50.364;7.550;2022-11-04T02:46:43;99438.88;;;9.35;100.00
54808;BME280;40708;50.364;7.550;2022-11-04T02:49:17;99438.97;;;9.29;100.00
54808;BME280;40708;50.364;7.550;2022-11-04T02:51:49;99440.81;;;9.19;100.00
54808;BME280;40708;50.364;7.550;2022-11-04T02:54:38;99439.06;;;9.17;100.00
54808;BME280;40708;50.364;7.550;2022-11-04T02:57:08;99442.63;;;9.14;100.00
54808;BME280;40708;50.364;7.550;2022-11-04T02:59:40;99442.63;;;9.14;100.00
54808;BME280;40708;50.364;7.550;2022-11-04T03:02:12;99440.03;;;9.08;100.00
54808;BME280;40708;50.364;7.550;2022-11-04T03:04:44;99454.16;;;9.09;100.00
54808;BME280;40708;50.364;7.550;2022-11-04T03:07:14;99444.47;;;9.08;100.00
54808;BME280;40708;50.364;7.550;2022-11-04T03:09:43;99443.59;;;9.06;100.00
54808;BME280;40708;50.364;7.550;2022-11-04T03:12:12;99440.06;;;9.05;100.00
54808;BME280;40708;50.364;7.550;2022-11-04T03:14:45;99448.91;;;9.04;100.00
54808;BME280;40708;50.364;7.550;2022-11-04T03:17:22;99448.91;;;9.04;100.00
54808;BME280;40708;50.364;7.550;2022-11-04T03:19:53;99444.50;;;9.05;100.00
54808;BME280;40708;50.364;7.550;2022-11-04T03:22:21;99438.28;;;9.06;100.00
54808;BME280;40708;50.364;7.550;2022-11-04T03:24:48;99439.22;;;9.05;100.00
54808;BME280;40708;50.364;7.550;2022-11-04T03:35:15;99417.31;;;8.87;100.00
54808;BME280;40708;50.364;7.550;2022-11-04T03:37:42;99414.69;;;8.84;100.00
54808;BME280;40708;50.364;7.550;2022-11-04T03:40:09;99418.25;;;8.82;100.00
54808;BME280;40708;50.364;7.550;2022-11-04T03:42:39;99420.97;;;8.73;100.00
54808;BME280;40708;50.364;7.550;2022-11-04T03:45:06;99422.75;;;8.71;100.00
54808;BME280;40708;50.364;7.550;2022-11-04T03:47:32;99420.97;;;8.74;100.00
54808;BME280;40708;50.364;7.550;2022-11-04T03:50:02;99426.22;;;8.76;100.00
54808;BME280;40708;50.364;7.550;2022-11-04T03:52:31;99434.09;;;8.85;100.00
54808;BME280;40708;50.364;7.550;2022-11-04T03:54:56;99426.13;;;8.88;100.00
54808;BME280;40708;50.364;7.550;2022-11-04T03:57:47;99442.84;;;8.93;100.00
54808;BME280;40708;50.364;7.550;2022-11-04T04:00:16;99436.66;;;8.94;100.00
54808;BME280;40708;50.364;7.550;2022-11-04T04:05:31;99434.84;;;8.97;100.00
54808;BME280;40708;50.364;7.550;2022-11-04T04:08:13;99441.03;;;8.98;100.00
54808;BME280;40708;50.364;7.550;2022-11-04T04:10:48;99447.16;;;9.00;100.00
54808;BME280;40708;50.364;7.550;2022-11-04T04:15:52;99447.03;;;9.15;100.00
54808;BME280;40708;50.364;7.550;2022-11-04T04:18:25;99439.91;;;9.22;100.00
54808;BME280;40708;50.364;7.550;2022-11-04T04:20:53;99447.84;;;9.23;100.00
54808;BME280;40708;50.364;7.550;2022-11-04T04:23:24;99446.19;;;9.12;100.00
54808;BME280;40708;50.364;7.550;2022-11-04T04:26:10;99448.88;;;9.07;100.00
54808;BME280;40708;50.364;7.550;2022-11-04T04:28:57;99462.13;;;9.03;100.00
54808;BME280;40708;50.364;7.550;2022-11-04T04:31:25;99463.94;;;9.02;100.00
54808;BME280;40708;50.364;7.550;2022-11-04T04:34:11;99468.28;;;9.08;100.00
54808;BME280;40708;50.364;7.550;2022-11-04T04:36:44;99464.72;;;9.10;100.00
54808;BME280;40708;50.364;7.550;2022-11-04T04:39:10;99453.22;;;9.16;100.00
54808;BME280;40708;50.364;7.550;2022-11-04T04:41:56;99461.19;;;9.08;100.00
54808;BME280;40708;50.364;7.550;2022-11-04T04:44:41;99464.72;;;9.09;100.00
54808;BME280;40708;50.364;7.550;2022-11-04T04:47:29;99459.47;;;9.06;100.00
54808;BME280;40708;50.364;7.550;2022-11-04T04:49:59;99453.28;;;9.05;100.00
54808;BME280;40708;50.364;7.550;2022-11-04T04:52:28;99447.16;;;9.00;100.00
54808;BME280;40708;50.364;7.550;2022-11-04T04:54:55;99443.94;;;8.66;100.00
54808;BME280;40708;50.364;7.550;2022-11-04T04:57:20;99451.09;;;8.51;100.00
54808;BME280;40708;50.364;7.550;2022-11-04T04:59:45;99452.88;;;8.46;100.00
54808;BME280;40708;50.364;7.550;2022-11-04T05:02:10;99450.19;;;8.58;100.00
54808;BME280;40708;50.364;7.550;2022-11-04T05:04:36;99449.28;;;8.60;100.00
54808;BME280;40708;50.364;7.550;2022-11-04T05:07:01;99441.28;;;8.68;100.00
54808;BME280;40708;50.364;7.550;2022-11-04T05:09:26;99449.28;;;8.60;100.00
54808;BME280;40708;50.364;7.550;2022-11-04T05:11:52;99444.09;;;8.47;100.00
54808;BME280;40708;50.364;7.550;2022-11-04T05:14:17;99443.25;;;8.40;100.00
54808;BME280;40708;50.364;7.550;2022-11-04T05:16:42;99441.47;;;8.44;100.00
54808;BME280;40708;50.364;7.550;2022-11-04T05:19:07;99438.81;;;8.47;100.00
54808;BME280;40708;50.364;7.550;2022-11-04T05:21:33;99438.75;;;8.51;100.00
54808;BME280;40708;50.364;7.550;2022-11-04T05:23:58;99444.03;;;8.56;100.00
54808;BME280;40708;50.364;7.550;2022-11-04T05:26:24;99440.50;;;8.54;100.00
54808;BME280;40708;50.364;7.550;2022-11-04T05:28:49;99447.53;;;8.56;100.00
54808;BME280;40708;50.364;7.550;2022-11-04T05:31:14;99445.75;;;8.60;100.00
54808;BME280;40708;50.364;7.550;2022-11-04T05:33:40;99445.72;;;8.66;100.00
54808;BME280;40708;50.364;7.550;2022-11-04T05:36:09;99445.59;;;8.78;100.00
54808;BME280;40708;50.364;7.550;2022-11-04T05:38:35;99459.69;;;8.83;100.00
54808;BME280;40708;50.364;7.550;2022-11-04T05:41:01;99455.25;;;8.85;100.00
54808;BME280;40708;50.364;7.550;2022-11-04T05:43:27;99462.22;;;8.92;100.00
54808;BME280;40708;50.364;7.550;2022-11-04T05:45:53;99461.31;;;8.97;100.00
54808;BME280;40708;50.364;7.550;2022-11-04T05:48:18;99465.69;;;9.02;100.00
54808;BME280;40708;50.364;7.550;2022-11-04T05:50:43;99469.97;;;9.15;100.00
54808;BME280;40708;50.364;7.550;2022-11-04T05:53:09;99463.75;;;9.20;100.00
54808;BME280;40708;50.364;7.550;2022-11-04T05:55:34;99463.66;;;9.29;100.00
54808;BME280;40708;50.364;7.550;2022-11-04T05:58:00;99468.88;;;9.35;100.00
54808;BME280;40708;50.364;7.550;2022-11-04T06:00:26;99460.00;;;9.42;100.00
54808;BME280;40708;50.364;7.550;2022-11-04T06:02:51;99466.97;;;9.49;100.00
54808;BME280;40708;50.364;7.550;2022-11-04T06:05:17;99462.47;;;9.57;100.00
54808;BME280;40708;50.364;7.550;2022-11-04T06:07:42;99466.75;;;9.69;100.00
54808;BME280;40708;50.364;7.550;2022-11-04T06:10:08;99464.94;;;9.73;100.00
54808;BME280;40708;50.364;7.550;2022-11-04T06:12:34;99458.72;;;9.77;100.00
54808;BME280;40708;50.364;7.550;2022-11-04T06:14:59;99461.25;;;9.86;100.00
54808;BME280;40708;50.364;7.550;2022-11-04T06:17:24;99456.78;;;9.91;100.00
54808;BME280;40708;50.364;7.550;2022-11-04T06:19:49;99468.22;;;9.93;100.00
54808;BME280;40708;50.364;7.550;2022-11-04T06:22:16;99474.38;;;9.95;100.00
54808;BME280;40708;50.364;7.550;2022-11-04T06:24:42;99476.16;;;9.93;100.00
54808;BME280;40708;50.364;7.550;2022-11-04T06:27:08;99468.19;;;9.96;100.00
54808;BME280;40708;50.364;7.550;2022-11-04T06:29:34;99475.22;;;9.98;100.00
54808;BME280;40708;50.364;7.550;2022-11-04T06:32:18;99463.72;;;9.98;100.00
54808;BME280;40708;50.364;7.550;2022-11-04T06:34:44;99467.25;;;9.98;100.00
54808;BME280;40708;50.364;7.550;2022-11-04T06:37:09;99469.88;;;10.01;100.00
54808;BME280;40708;50.364;7.550;2022-11-04T06:39:35;99469.84;;;10.03;100.00
54808;BME280;40708;50.364;7.550;2022-11-04T06:42:01;99456.53;;;10.09;100.00
54808;BME280;40708;50.364;7.550;2022-11-04T06:44:27;99462.75;;;10.08;100.00
54808;BME280;40708;50.364;7.550;2022-11-04T06:46:52;99462.81;;;10.00;100.00
54808;BME280;40708;50.364;7.550;2022-11-04T06:49:20;99477.00;;;9.95;100.00
54808;BME280;40708;50.364;7.550;2022-11-04T06:51:46;99469.97;;;9.92;100.00
54808;BME280;40708;50.364;7.550;2022-11-04T06:54:13;99473.56;;;9.90;100.00
54808;BME280;40708;50.364;7.550;2022-11-04T06:56:39;99473.56;;;9.91;100.00
54808;BME280;40708;50.364;7.550;2022-11-04T06:59:04;99481.50;;;9.90;100.00
54808;BME280;40708;50.364;7.550;2022-11-04T07:01:34;99485.88;;;9.92;100.00
54808;BME280;40708;50.364;7.550;2022-11-04T07:04:00;99492.06;;;9.93;100.00
54808;BME280;40708;50.364;7.550;2022-11-04T07:06:27;99494.72;;;9.94;100.00
54808;BME280;40708;50.364;7.550;2022-11-04T07:08:56;99493.75;;;9.98;100.00
54808;BME280;40708;50.364;7.550;2022-11-04T07:11:24;99500.81;;;9.99;100.00
54808;BME280;40708;50.364;7.550;2022-11-04T07:13:50;99502.50;;;10.06;100.00
54808;BME280;40708;50.364;7.550;2022-11-04T07:16:16;99501.63;;;10.03;100.00
54808;BME280;40708;50.364;7.550;2022-11-04T07:18:42;99491.03;;;10.03;100.00
54808;BME280;40708;50.364;7.550;2022-11-04T07:21:08;99492.81;;;10.04;100.00
54808;BME280;40708;50.364;7.550;2022-11-04T07:23:34;99503.34;;;10.10;100.00
54808;BME280;40708;50.364;7.550;2022-11-04T07:26:04;99503.34;;;10.10;100.00
54808;BME280;40708;50.364;7.550;2022-11-04T07:28:30;99500.69;;;10.13;100.00
54808;BME280;40708;50.364;7.550;2022-11-04T07:30:56;99500.59;;;10.21;100.00
54808;BME280;40708;50.364;7.550;2022-11-04T07:33:22;99496.09;;;10.27;100.00
54808;BME280;40708;50.364;7.550;2022-11-04T07:35:48;99503.09;;;10.31;100.00
54808;BME280;40708;50.364;7.550;2022-11-04T07:38:13;99515.38;;;10.37;100.00
54808;BME280;40708;50.364;7.550;2022-11-04T07:40:38;99509.19;;;10.38;100.00
54808;BME280;40708;50.364;7.550;2022-11-04T07:43:04;99500.31;;;10.40;100.00
54808;BME280;40708;50.364;7.550;2022-11-04T07:45:29;99505.66;;;10.37;100.00
54808;BME280;40708;50.364;7.550;2022-11-04T07:47:54;99515.28;;;10.46;100.00
54808;BME280;40708;50.364;7.550;2022-11-04T07:50:20;99521.41;;;10.46;100.00
54808;BME280;40708;50.364;7.550;2022-11-04T07:52:45;99516.03;;;10.54;100.00
54808;BME280;40708;50.364;7.550;2022-11-04T07:55:10;99513.38;;;10.54;100.00
54808;BME280;40708;50.364;7.550;2022-11-04T07:57:42;99517.72;;;10.58;100.00
54808;BME280;40708;50.364;7.550;2022-11-04T08:00:08;99514.06;;;10.68;100.00
54808;BME280;40708;50.364;7.550;2022-11-04T08:02:33;99503.47;;;10.68;100.00
54808;BME280;40708;50.364;7.550;2022-11-04T08:04:59;99518.28;;;10.80;100.00
54808;BME280;40708;50.364;7.550;2022-11-04T08:07:24;99514.66;;;10.87;100.00
54808;BME280;40708;50.364;7.550;2022-11-04T08:09:49;99519.84;;;10.94;100.00
54808;BME280;40708;50.364;7.550;2022-11-04T08:12:15;99523.22;;;11.04;100.00
54808;BME280;40708;50.364;7.550;2022-11-04T08:14:40;99526.84;;;10.98;100.00
54808;BME280;40708;50.364;7.550;2022-11-04T08:17:05;99513.53;;;11.01;100.00
54808;BME280;40708;50.364;7.550;2022-11-04T08:19:31;99508.25;;;10.98;100.00
54808;BME280;40708;50.364;7.550;2022-11-04T08:21:56;99515.25;;;11.05;100.00
54808;BME280;40708;50.364;7.550;2022-11-04T08:24:21;99519.53;;;11.12;100.00
54808;BME280;40708;50.364;7.550;2022-11-04T08:26:47;99516.78;;;11.18;100.00
54808;BME280;40708;50.364;7.550;2022-11-04T08:29:12;99529.91;;;11.27;100.00
54808;BME280;40708;50.364;7.550;2022-11-04T08:31:37;99528.25;;;11.22;100.00
54808;BME280;40708;50.364;7.550;2022-11-04T08:34:03;99524.56;;;11.30;100.00
54808;BME280;40708;50.364;7.550;2022-11-04T08:36:35;99529.03;;;11.27;100.00
54808;BME280;40708;50.364;7.550;2022-11-04T08:39:03;99530.81;;;11.26;100.00
54808;BME280;40708;50.364;7.550;2022-11-04T08:41:29;99530.09;;;11.17;100.00
54808;BME280;40708;50.364;7.550;2022-11-04T08:43:56;99540.72;;;11.17;100.00
54808;BME280;40708;50.364;7.550;2022-11-04T08:46:24;99535.28;;;11.24;100.00
54808;BME280;40708;50.364;7.550;2022-11-04T08:48:49;99532.66;;;11.21;100.00
54808;BME280;40708;50.364;7.550;2022-11-04T08:51:20;99524.72;;;11.21;100.00
54808;BME280;40708;50.364;7.550;2022-11-04T08:53:46;99520.28;;;11.22;100.00
54808;BME280;40708;50.364;7.550;2022-11-04T08:56:20;99523.69;;;11.30;100.00
54808;BME280;40708;50.364;7.550;2022-11-04T08:58:46;99526.28;;;11.33;100.00
54808;BME280;40708;50.364;7.550;2022-11-04T09:01:13;99525.34;;;11.35;100.00
54808;BME280;40708;50.364;7.550;2022-11-04T09:03:39;99533.19;;;11.42;100.00
54808;BME280;40708;50.364;7.550;2022-11-04T09:06:07;99521.81;;;11.35;100.00
54808;BME280;40708;50.364;7.550;2022-11-04T09:08:32;99533.13;;;11.46;100.00
54808;BME280;40708;50.364;7.550;2022-11-04T09:10:58;99516.28;;;11.47;100.00
54808;BME280;40708;50.364;7.550;2022-11-04T09:13:23;99520.78;;;11.42;100.00
54808;BME280;40708;50.364;7.550;2022-11-04T09:15:48;99519.66;;;11.55;100.00
54808;BME280;40708;50.364;7.550;2022-11-04T09:18:14;99514.56;;;11.45;100.00
54808;BME280;40708;50.364;7.550;2022-11-04T09:20:39;99510.75;;;11.58;100.00
54808;BME280;40708;50.364;7.550;2022-11-04T09:23:09;99500.78;;;11.73;100.00
54808;BME280;40708;50.364;7.550;2022-11-04T09:25:35;99496.75;;;11.97;100.00
54808;BME280;40708;50.364;7.550;2022-11-04T09:28:00;99496.72;;;11.99;100.00
54808;BME280;40708;50.364;7.550;2022-11-04T09:30:26;99498.28;;;12.09;100.00
54808;BME280;40708;50.364;7.550;2022-11-04T09:32:52;99490.81;;;12.27;100.00
54808;BME280;40708;50.364;7.550;2022-11-04T09:35:17;99484.34;;;12.39;100.00
54808;BME280;40708;50.364;7.550;2022-11-04T09:37:43;99484.88;;;12.53;100.00
54808;BME280;40708;50.364;7.550;2022-11-04T09:40:14;99484.50;;;12.70;100.00
54808;BME280;40708;50.364;7.550;2022-11-04T09:45:16;99478.72;;;12.89;100.00
54808;BME280;40708;50.364;7.550;2022-11-04T09:47:45;99471.53;;;12.93;100.00
54808;BME280;40708;50.364;7.550;2022-11-04T09:50:30;99484.31;;;13.16;100.00
54808;BME280;40708;50.364;7.550;2022-11-04T09:53:24;99482.25;;;13.27;100.00
54808;BME280;40708;50.364;7.550;2022-11-04T09:55:56;99479.22;;;13.40;100.00
54808;BME280;40708;50.364;7.550;2022-11-04T09:58:22;99484.69;;;13.36;100.00
54808;BME280;40708;50.364;7.550;2022-11-04T10:01:38;99474.78;;;13.73;100.00
54808;BME280;40708;50.364;7.550;2022-11-04T10:07:11;99470.13;;;14.43;100.00
54808;BME280;40708;50.364;7.550;2022-11-04T10:09:52;99472.47;;;14.22;100.00
54808;BME280;40708;50.364;7.550;2022-11-04T10:13:43;99479.69;;;13.88;100.00
54808;BME280;40708;50.364;7.550;2022-11-04T10:21:29;99494.19;;;13.78;100.00
54808;BME280;40708;50.364;7.550;2022-11-04T10:24:03;99500.31;;;13.82;100.00
54808;BME280;40708;50.364;7.550;2022-11-04T10:29:21;99496.97;;;13.75;100.00
54808;BME280;40708;50.364;7.550;2022-11-04T10:31:47;99496.56;;;13.89;100.00
54808;BME280;40708;50.364;7.550;2022-11-04T10:34:28;99495.25;;;14.03;100.00
54808;BME280;40708;50.364;7.550;2022-11-04T10:36:56;99501.81;;;14.22;100.00
54808;BME280;40708;50.364;7.550;2022-11-04T10:39:27;99509.53;;;14.01;100.00
54808;BME280;40708;50.364;7.550;2022-11-04T10:41:53;99513.22;;;13.97;100.00
54808;BME280;40708;50.364;7.550;2022-11-04T10:44:32;99510.88;;;13.52;100.00
54808;BME280;40708;50.364;7.550;2022-11-04T10:47:11;99515.09;;;13.61;100.00
54808;BME280;40708;50.364;7.550;2022-11-04T10:49:52;99518.72;;;13.58;100.00
54808;BME280;40708;50.364;7.550;2022-11-04T10:52:19;99519.84;;;13.50;100.00
54808;BME280;40708;50.364;7.550;2022-11-04T10:54:47;99518.81;;;13.54;100.00
54808;BME280;40708;50.364;7.550;2022-11-04T10:57:21;99525.38;;;13.42;100.00
54808;BME280;40708;50.364;7.550;2022-11-04T10:59:53;99520.47;;;13.24;100.00
54808;BME280;40708;50.364;7.550;2022-11-04T11:07:45;99535.56;;;13.25;100.00
54808;BME280;40708;50.364;7.550;2022-11-04T11:10:29;99534.63;;;13.28;100.00
54808;BME280;40708;50.364;7.550;2022-11-04T11:15:37;99537.75;;;13.45;100.00
54808;BME280;40708;50.364;7.550;2022-11-04T11:18:15;99526.66;;;13.60;100.00
54808;BME280;40708;50.364;7.550;2022-11-04T11:20:49;99526.53;;;13.64;100.00
54808;BME280;40708;50.364;7.550;2022-11-04T11:23:41;99531.91;;;13.63;100.00
54808;BME280;40708;50.364;7.550;2022-11-04T11:26:09;99521.69;;;13.48;100.00
54808;BME280;40708;50.364;7.550;2022-11-04T11:28:37;99530.81;;;13.70;100.00
54808;BME280;40708;50.364;7.550;2022-11-04T11:31:07;99528.16;;;13.71;100.00
54808;BME280;40708;50.364;7.550;2022-11-04T11:33:40;99519.94;;;13.79;100.00
54808;BME280;40708;50.364;7.550;2022-11-04T11:36:19;99521.78;;;13.77;100.00
54808;BME280;40708;50.364;7.550;2022-11-04T11:39:13;99522.34;;;13.88;100.00
54808;BME280;40708;50.364;7.550;2022-11-04T11:41:50;99529.19;;;13.64;100.00
54808;BME280;40708;50.364;7.550;2022-11-04T11:44:40;99530.09;;;13.65;100.00
54808;BME280;40708;50.364;7.550;2022-11-04T11:50:10;99533.56;;;13.68;100.00
54808;BME280;40708;50.364;7.550;2022-11-04T11:52:39;99531.25;;;13.87;100.00
54808;BME280;40708;50.364;7.550;2022-11-04T11:57:44;99531.22;;;13.89;100.00
54808;BME280;40708;50.364;7.550;2022-11-04T12:00:14;99519.88;;;14.13;100.00
54808;BME280;40708;50.364;7.550;2022-11-04T12:02:54;99520.25;;;14.32;100.00
54808;BME280;40708;50.364;7.550;2022-11-04T12:05:31;99517.50;;;14.02;100.00
54808;BME280;40708;50.364;7.550;2022-11-04T12:08:08;99522.84;;;14.35;100.00
54808;BME280;40708;50.364;7.550;2022-11-04T12:10:44;99525.94;;;14.49;100.00
54808;BME280;40708;50.364;7.550;2022-11-04T12:13:59;99527.97;;;14.41;100.00
54808;BME280;40708;50.364;7.550;2022-11-04T12:16:24;99525.41;;;14.38;100.00
54808;BME280;40708;50.364;7.550;2022-11-04T12:21:32;99518.72;;;14.52;100.00
54808;BME280;40708;50.364;7.550;2022-11-04T12:29:18;99510.06;;;15.55;100.00
54808;BME280;40708;50.364;7.550;2022-11-04T12:32:00;99506.41;;;16.07;100.00
54808;BME280;40708;50.364;7.550;2022-11-04T12:34:48;99498.81;;;16.20;100.00
54808;BME280;40708;50.364;7.550;2022-11-04T12:40:27;99496.75;;;16.03;100.00
54808;BME280;40708;50.364;7.550;2022-11-04T12:46:55;99499.69;;;15.46;100.00
54808;BME280;40708;50.364;7.550;2022-11-04T12:52:05;99522.34;;;15.07;100.00
54808;BME280;40708;50.364;7.550;2022-11-04T12:57:54;99521.78;;;14.97;100.00
54808;BME280;40708;50.364;7.550;2022-11-04T13:00:23;99521.63;;;15.28;100.00
54808;BME280;40708;50.364;7.550;2022-11-04T13:05:57;99529.72;;;14.71;100.00
54808;BME280;40708;50.364;7.550;2022-11-04T13:08:38;99535.22;;;14.65;100.00
54808;BME280;40708;50.364;7.550;2022-11-04T13:11:12;99528.75;;;14.73;100.00
54808;BME280;40708;50.364;7.550;2022-11-04T13:14:03;99526.09;;;14.44;100.00
54808;BME280;40708;50.364;7.550;2022-11-04T13:16:31;99529.28;;;14.84;100.00
54808;BME280;40708;50.364;7.550;2022-11-04T13:18:58;99534.78;;;15.08;100.00
54808;BME280;40708;50.364;7.550;2022-11-04T13:21:26;99533.38;;;15.24;100.00
54808;BME280;40708;50.364;7.550;2022-11-04T13:24:15;99532.69;;;15.17;100.00
54808;BME280;40708;50.364;7.550;2022-11-04T13:26:44;99543.25;;;14.65;100.00
54808;BME280;40708;50.364;7.550;2022-11-04T13:29:20;99539.94;;;14.57;100.00
54808;BME280;40708;50.364;7.550;2022-11-04T13:32:07;99540.69;;;14.62;100.00
54808;BME280;40708;50.364;7.550;2022-11-04T13:37:28;99544.75;;;14.73;100.00
54808;BME280;40708;50.364;7.550;2022-11-04T13:40:12;99539.34;;;14.47;100.00
54808;BME280;40708;50.364;7.550;2022-11-04T13:45:55;99539.53;;;14.09;100.00
54808;BME280;40708;50.364;7.550;2022-11-04T13:48:30;99546.66;;;14.08;100.00
54808;BME280;40708;50.364;7.550;2022-11-04T13:51:06;99536.63;;;14.18;100.00
54808;BME280;40708;50.364;7.550;2022-11-04T13:53:47;99540.94;;;14.22;100.00
54808;BME280;40708;50.364;7.550;2022-11-04T13:56:37;99549.25;;;14.11;100.00
54808;BME280;40708;50.364;7.550;2022-11-04T14:01:41;99555.00;;;14.28;100.00
54808;BME280;40708;50.364;7.550;2022-11-04T14:22:34;99584.84;;;14.10;100.00
54808;BME280;40708;50.364;7.550;2022-11-04T14:25:17;99590.88;;;14.17;100.00
54808;BME280;40708;50.364;7.550;2022-11-04T14:27:44;99597.69;;;14.28;100.00
54808;BME280;40708;50.364;7.550;2022-11-04T14:30:33;99595.91;;;14.60;100.00
54808;BME280;40708;50.364;7.550;2022-11-04T14:33:03;99606.16;;;14.75;100.00
54808;BME280;40708;50.364;7.550;2022-11-04T14:35:30;99616.03;;;15.01;100.00
54808;BME280;40708;50.364;7.550;2022-11-04T14:38:18;99610.13;;;15.19;100.00
54808;BME280;40708;50.364;7.550;2022-11-04T14:40:53;99611.03;;;15.18;100.00
54808;BME280;40708;50.364;7.550;2022-11-04T14:43:35;99615.50;;;15.17;100.00
54808;BME280;40708;50.364;7.550;2022-11-04T14:46:00;99619.22;;;15.13;100.00
54808;BME280;40708;50.364;7.550;2022-11-04T14:48:27;99623.84;;;15.08;100.00
54808;BME280;40708;50.364;7.550;2022-11-04T14:50:55;99622.72;;;15.15;100.00
54808;BME280;40708;50.364;7.550;2022-11-04T14:53:32;99630.63;;;15.18;100.00
54808;BME280;40708;50.364;7.550;2022-11-04T14:56:15;99632.47;;;14.87;100.00
54808;BME280;40708;50.364;7.550;2022-11-04T15:01:19;99650.41;;;14.51;100.00
54808;BME280;40708;50.364;7.550;2022-11-04T15:03:46;99653.56;;;14.35;100.00